createdAt,value
2018-04-26T00:01:28.987Z,11.40
2018-04-26T00:03:56.470Z,11.40
2018-04-26T00:06:23.911Z,11.50
2018-04-26T00:08:51.383Z,11.40
2018-04-26T00:11:18.834Z,11.40
2018-04-26T00:13:46.327Z,11.40
2018-04-26T00:16:13.775Z,11.40
2018-04-26T00:18:41.258Z,11.40
2018-04-26T00:21:08.708Z,11.40
2018-04-26T00:23:36.152Z,11.40
2018-04-26T00:26:03.623Z,11.40
2018-04-26T00:28:31.077Z,11.50
2018-04-26T00:30:58.546Z,11.50
2018-04-26T00:33:25.995Z,11.50
2018-04-26T00:35:53.472Z,11.60
2018-04-26T00:38:20.944Z,11.60
2018-04-26T00:40:48.411Z,11.60
2018-04-26T00:43:16.631Z,11.70
2018-04-26T00:45:44.094Z,11.60
2018-04-26T00:48:11.559Z,11.70
2018-04-26T00:50:39.007Z,11.70
2018-04-26T00:53:06.475Z,11.70
2018-04-26T00:55:33.952Z,11.70
2018-04-26T00:58:01.416Z,11.80
2018-04-26T01:00:28.887Z,11.80
2018-04-26T01:02:57.130Z,11.70
2018-04-26T01:05:24.607Z,11.70
2018-04-26T01:07:52.059Z,11.70
2018-04-26T01:10:19.537Z,11.60
2018-04-26T01:12:47.784Z,11.50
2018-04-26T01:15:15.235Z,11.50
2018-04-26T01:17:42.707Z,11.50
2018-04-26T01:20:10.278Z,11.40
2018-04-26T01:22:37.684Z,11.40
2018-04-26T01:25:05.259Z,11.30
2018-04-26T01:27:32.740Z,11.30
2018-04-26T01:30:00.199Z,11.20
2018-04-26T01:32:27.672Z,11.20
2018-04-26T01:34:55.126Z,11.10
2018-04-26T01:37:34.476Z,11.10
2018-04-26T01:40:01.927Z,11.10
2018-04-26T01:42:30.179Z,11.10
2018-04-26T01:44:57.741Z,11.10
2018-04-26T01:47:25.229Z,11.10
2018-04-26T01:49:53.465Z,11.10
2018-04-26T01:52:20.923Z,11.10
2018-04-26T01:54:48.411Z,11.10
2018-04-26T01:57:15.850Z,11.10
2018-04-26T01:59:43.339Z,11.10
2018-04-26T02:02:11.567Z,11.10
2018-04-26T02:04:39.812Z,11.00
2018-04-26T02:07:07.265Z,11.00
2018-04-26T02:09:34.749Z,11.00
2018-04-26T02:12:02.195Z,10.90
2018-04-26T02:14:29.646Z,10.90
2018-04-26T02:16:57.116Z,10.90
2018-04-26T02:19:24.571Z,10.80
2018-04-26T02:21:52.129Z,10.70
2018-04-26T02:24:19.572Z,10.60
2018-04-26T02:26:47.019Z,10.60
2018-04-26T02:29:14.493Z,10.50
2018-04-26T02:31:41.972Z,10.50
2018-04-26T02:34:09.448Z,10.40
2018-04-26T02:36:36.915Z,10.40
2018-04-26T02:39:04.378Z,10.40
2018-04-26T02:41:31.843Z,10.40
2018-04-26T02:43:59.294Z,10.40
2018-04-26T02:46:26.784Z,10.40
2018-04-26T02:48:55.016Z,10.40
2018-04-26T02:51:22.528Z,10.40
2018-04-26T02:53:49.978Z,10.50
2018-04-26T02:56:18.194Z,10.50
2018-04-26T02:58:45.663Z,10.50
2018-04-26T03:01:13.141Z,10.50
2018-04-26T03:03:40.596Z,10.50
2018-04-26T03:06:08.069Z,10.40
2018-04-26T03:08:35.524Z,10.40
2018-04-26T03:11:03.000Z,10.30
2018-04-26T03:13:31.223Z,10.20
2018-04-26T03:15:58.687Z,10.20
2018-04-26T03:18:26.147Z,10.20
2018-04-26T03:20:53.657Z,10.10
2018-04-26T03:23:21.962Z,10.10
2018-04-26T03:25:49.439Z,10.00
2018-04-26T03:28:16.882Z,10.10
2018-04-26T03:30:44.375Z,10.10
2018-04-26T03:33:11.824Z,10.10
2018-04-26T03:35:39.315Z,10.10
2018-04-26T03:38:06.779Z,10.10
2018-04-26T03:40:35.019Z,10.10
2018-04-26T03:43:02.537Z,10.00
2018-04-26T03:45:29.994Z,10.00
2018-04-26T03:47:57.467Z,9.90
2018-04-26T03:50:25.000Z,9.80
2018-04-26T03:52:53.235Z,9.80
2018-04-26T03:55:20.695Z,9.70
2018-04-26T03:57:48.129Z,9.70
2018-04-26T04:00:27.314Z,9.70
2018-04-26T04:03:07.444Z,9.70
2018-04-26T04:05:46.651Z,9.60
2018-04-26T04:08:14.091Z,9.70
2018-04-26T04:10:41.554Z,9.70
2018-04-26T04:13:09.022Z,9.80
2018-04-26T04:15:36.492Z,9.80
2018-04-26T04:18:03.943Z,9.90
2018-04-26T04:20:31.415Z,10.00
2018-04-26T04:22:58.859Z,10.00
2018-04-26T04:25:26.336Z,10.00
2018-04-26T04:27:53.885Z,10.10
2018-04-26T04:30:22.040Z,10.10
2018-04-26T04:32:49.496Z,10.10
2018-04-26T04:35:16.997Z,10.10
2018-04-26T04:37:44.452Z,10.10
2018-04-26T04:40:11.919Z,10.10
2018-04-26T04:42:39.400Z,10.00
2018-04-26T04:45:06.939Z,10.00
2018-04-26T04:47:34.362Z,9.90
2018-04-26T04:50:02.592Z,9.80
2018-04-26T04:52:30.031Z,9.70
2018-04-26T04:54:57.488Z,9.70
2018-04-26T04:57:24.932Z,9.70
2018-04-26T04:59:52.403Z,9.70
2018-04-26T05:02:19.875Z,9.80
2018-04-26T05:04:48.081Z,9.80
2018-04-26T05:07:15.618Z,9.70
2018-04-26T05:09:43.056Z,9.70
2018-04-26T05:12:10.522Z,9.70
2018-04-26T05:14:38.760Z,9.60
2018-04-26T05:17:07.140Z,9.60
2018-04-26T05:19:34.588Z,9.50
2018-04-26T05:22:02.161Z,9.60
2018-04-26T05:24:29.594Z,9.60
2018-04-26T05:26:57.063Z,9.70
2018-04-26T05:29:24.531Z,9.80
2018-04-26T05:31:52.012Z,9.80
2018-04-26T05:34:19.496Z,9.90
2018-04-26T05:36:46.959Z,10.00
2018-04-26T05:39:14.415Z,10.00
2018-04-26T05:41:41.871Z,10.00
2018-04-26T05:44:10.103Z,10.00
2018-04-26T05:46:37.761Z,9.90
2018-04-26T05:49:06.244Z,10.00
2018-04-26T05:51:33.906Z,9.90
2018-04-26T05:54:01.348Z,9.90
2018-04-26T05:56:28.815Z,9.90
2018-04-26T05:58:56.298Z,10.00
2018-04-26T06:01:23.764Z,10.00
2018-04-26T06:03:51.445Z,10.10
2018-04-26T06:06:18.891Z,10.10
2018-04-26T06:08:47.140Z,10.20
2018-04-26T06:11:14.694Z,10.10
2018-04-26T06:13:42.088Z,10.20
2018-04-26T06:16:09.535Z,10.20
2018-04-26T06:18:37.017Z,10.20
2018-04-26T06:21:04.575Z,10.30
2018-04-26T06:23:32.891Z,10.30
2018-04-26T06:26:00.354Z,10.30
2018-04-26T06:28:27.808Z,10.40
2018-04-26T06:30:55.280Z,10.50
2018-04-26T06:33:22.723Z,10.60
2018-04-26T06:35:50.191Z,10.70
2018-04-26T06:38:17.635Z,10.80
2018-04-26T06:40:45.113Z,10.90
2018-04-26T06:43:12.559Z,11.00
2018-04-26T06:45:40.044Z,11.20
2018-04-26T06:48:07.491Z,11.40
2018-04-26T06:50:34.935Z,11.60
2018-04-26T06:53:02.423Z,11.60
2018-04-26T06:55:29.871Z,11.60
2018-04-26T06:57:57.389Z,11.60
2018-04-26T07:00:24.856Z,11.70
2018-04-26T07:02:52.331Z,11.70
2018-04-26T07:05:19.820Z,11.90
2018-04-26T07:07:47.276Z,11.90
2018-04-26T07:10:14.755Z,11.90
2018-04-26T07:12:43.002Z,12.00
2018-04-26T07:15:10.462Z,11.90
2018-04-26T07:17:37.944Z,12.10
2018-04-26T07:20:06.213Z,12.00
2018-04-26T07:22:34.465Z,11.90
2018-04-26T07:25:01.912Z,11.90
2018-04-26T07:27:29.397Z,11.80
2018-04-26T07:29:56.884Z,11.70
2018-04-26T07:32:25.115Z,11.70
2018-04-26T07:34:52.628Z,11.70
2018-04-26T07:37:20.063Z,11.80
2018-04-26T07:39:47.507Z,11.80
2018-04-26T07:42:14.984Z,11.80
2018-04-26T07:44:42.443Z,11.90
2018-04-26T07:47:10.747Z,12.00
2018-04-26T07:49:38.213Z,12.00
2018-04-26T07:52:05.774Z,12.00
2018-04-26T07:54:33.239Z,12.00
2018-04-26T07:57:00.727Z,12.10
2018-04-26T07:59:28.209Z,12.10
2018-04-26T08:01:55.660Z,12.20
2018-04-26T08:04:23.166Z,12.40
2018-04-26T08:06:50.615Z,12.70
2018-04-26T08:09:18.084Z,12.80
2018-04-26T08:11:45.609Z,12.70
2018-04-26T08:14:13.840Z,12.80
2018-04-26T08:16:41.301Z,12.80
2018-04-26T08:19:08.788Z,12.80
2018-04-26T08:21:37.015Z,12.60
2018-04-26T08:24:05.338Z,12.70
2018-04-26T08:26:32.811Z,12.60
2018-04-26T08:29:01.052Z,12.60
2018-04-26T08:31:28.529Z,12.60
2018-04-26T08:33:56.011Z,12.90
2018-04-26T08:36:23.480Z,13.20
2018-04-26T08:38:50.936Z,13.60
2018-04-26T08:41:18.412Z,13.80
2018-04-26T08:43:45.904Z,13.80
2018-04-26T08:46:13.372Z,13.60
2018-04-26T08:48:40.832Z,13.30
2018-04-26T08:51:08.312Z,13.10
2018-04-26T08:53:35.800Z,13.00
2018-04-26T08:56:03.264Z,13.10
2018-04-26T08:58:30.772Z,13.20
2018-04-26T09:00:58.221Z,13.30
2018-04-26T09:03:25.706Z,13.50
2018-04-26T09:05:53.929Z,14.00
2018-04-26T09:08:21.382Z,14.00
2018-04-26T09:10:48.912Z,14.20
2018-04-26T09:13:16.396Z,14.20
2018-04-26T09:15:43.885Z,13.90
2018-04-26T09:18:11.312Z,13.70
2018-04-26T09:20:38.791Z,13.50
2018-04-26T09:23:06.266Z,13.40
2018-04-26T09:25:33.717Z,13.50
2018-04-26T09:28:01.207Z,13.50
2018-04-26T09:30:28.665Z,13.50
2018-04-26T09:32:56.908Z,13.70
2018-04-26T09:35:24.380Z,13.60
2018-04-26T09:37:51.838Z,13.90
2018-04-26T09:40:19.291Z,14.20
2018-04-26T09:42:46.760Z,14.60
2018-04-26T09:45:14.243Z,14.70
2018-04-26T09:47:41.687Z,14.80
2018-04-26T09:50:09.903Z,15.30
2018-04-26T09:52:37.384Z,15.30
2018-04-26T09:55:04.835Z,15.40
2018-04-26T09:57:32.311Z,15.50
2018-04-26T09:59:59.754Z,15.50
2018-04-26T10:02:27.235Z,15.30
2018-04-26T10:04:56.336Z,15.00
2018-04-26T10:07:23.818Z,14.80
2018-04-26T10:09:51.379Z,14.80
2018-04-26T10:12:18.872Z,14.80
2018-04-26T10:14:46.323Z,14.90
2018-04-26T10:17:13.779Z,15.00
2018-04-26T10:19:41.257Z,15.10
2018-04-26T10:22:08.712Z,15.20
2018-04-26T10:24:36.206Z,15.20
2018-04-26T10:27:03.660Z,15.10
2018-04-26T10:29:31.128Z,14.90
2018-04-26T10:31:58.652Z,14.90
2018-04-26T10:34:26.107Z,14.90
2018-04-26T10:36:53.599Z,15.00
2018-04-26T10:39:21.076Z,15.10
2018-04-26T10:41:49.369Z,15.30
2018-04-26T10:44:16.928Z,15.30
2018-04-26T10:46:44.359Z,15.30
2018-04-26T10:49:11.803Z,15.40
2018-04-26T10:51:39.282Z,15.40
2018-04-26T10:54:06.968Z,15.30
2018-04-26T10:56:34.415Z,15.20
2018-04-26T10:59:01.891Z,15.20
2018-04-26T11:01:29.404Z,15.10
2018-04-26T11:03:56.878Z,15.10
2018-04-26T11:06:25.096Z,15.40
2018-04-26T11:08:52.741Z,15.40
2018-04-26T11:11:20.199Z,15.80
2018-04-26T11:13:47.647Z,16.00
2018-04-26T11:16:15.147Z,16.10
2018-04-26T11:18:42.616Z,16.10
2018-04-26T11:21:10.086Z,16.20
2018-04-26T11:23:37.555Z,16.30
2018-04-26T11:26:05.775Z,16.30
2018-04-26T11:28:33.268Z,16.30
2018-04-26T11:31:00.789Z,16.10
2018-04-26T11:33:29.456Z,15.70
2018-04-26T11:35:56.932Z,15.70
2018-04-26T11:38:24.459Z,15.70
2018-04-26T11:40:51.925Z,15.70
2018-04-26T11:43:19.400Z,15.80
2018-04-26T11:45:46.858Z,16.00
2018-04-26T11:48:14.354Z,16.30
2018-04-26T11:50:41.815Z,16.70
2018-04-26T11:53:09.279Z,17.20
2018-04-26T11:55:36.755Z,17.10
2018-04-26T11:58:04.204Z,16.70
2018-04-26T12:00:31.712Z,16.30
2018-04-26T12:02:59.208Z,16.20
2018-04-26T12:05:26.691Z,16.10
2018-04-26T12:07:54.147Z,16.00
2018-04-26T12:10:21.600Z,15.80
2018-04-26T12:12:49.083Z,15.80
2018-04-26T12:15:16.527Z,15.80
2018-04-26T12:17:43.987Z,15.70
2018-04-26T12:20:11.488Z,15.90
2018-04-26T12:22:39.014Z,16.20
2018-04-26T12:25:07.287Z,16.40
2018-04-26T12:27:35.535Z,16.40
2018-04-26T12:30:03.025Z,16.40
2018-04-26T12:32:31.272Z,16.30
2018-04-26T12:34:58.722Z,16.30
2018-04-26T12:37:26.175Z,16.30
2018-04-26T12:39:53.645Z,16.30
2018-04-26T12:42:21.340Z,16.30
2018-04-26T12:44:48.787Z,16.40
2018-04-26T12:47:17.015Z,16.20
2018-04-26T12:49:44.504Z,16.20
2018-04-26T12:52:11.954Z,16.20
2018-04-26T12:54:39.433Z,16.40
2018-04-26T12:57:07.655Z,16.80
2018-04-26T12:59:35.149Z,16.80
2018-04-26T13:02:02.605Z,16.80
2018-04-26T13:04:30.171Z,16.70
2018-04-26T13:06:57.643Z,16.50
2018-04-26T13:09:25.886Z,16.50
2018-04-26T13:11:53.360Z,16.40
2018-04-26T13:14:20.818Z,16.70
2018-04-26T13:16:48.283Z,16.90
2018-04-26T13:19:15.743Z,17.00
2018-04-26T13:21:43.219Z,17.10
2018-04-26T13:24:10.696Z,17.00
2018-04-26T13:26:38.171Z,16.80
2018-04-26T13:29:05.639Z,16.60
2018-04-26T13:31:33.091Z,16.40
2018-04-26T13:34:00.559Z,16.40
2018-04-26T13:36:28.031Z,16.50
2018-04-26T13:38:55.507Z,17.20
2018-04-26T13:41:22.960Z,19.20
2018-04-26T13:43:50.435Z,20.70
2018-04-26T13:46:18.729Z,21.40
2018-04-26T13:48:46.138Z,21.40
2018-04-26T13:51:13.650Z,23.20
2018-04-26T13:53:41.128Z,23.70
2018-04-26T13:56:08.588Z,23.30
2018-04-26T13:58:36.041Z,23.40
2018-04-26T14:01:03.516Z,25.20
2018-04-26T14:03:30.977Z,26.50
2018-04-26T14:05:58.443Z,26.20
2018-04-26T14:08:25.924Z,24.40
2018-04-26T14:10:53.386Z,25.40
2018-04-26T14:13:20.860Z,27.70
2018-04-26T14:15:48.329Z,30.60
2018-04-26T14:18:15.783Z,32.00
2018-04-26T14:20:44.027Z,27.00
2018-04-26T14:23:11.552Z,26.90
2018-04-26T14:25:38.980Z,25.00
2018-04-26T14:28:06.465Z,26.80
2018-04-26T14:30:34.873Z,29.70
2018-04-26T14:33:02.383Z,31.80
2018-04-26T14:35:29.822Z,32.90
2018-04-26T14:37:57.317Z,33.40
2018-04-26T14:40:24.792Z,34.20
2018-04-26T14:42:52.274Z,34.50
2018-04-26T14:45:19.736Z,33.40
2018-04-26T14:47:47.229Z,33.80
2018-04-26T14:50:15.491Z,35.20
2018-04-26T14:52:43.712Z,35.80
2018-04-26T14:55:11.193Z,35.80
2018-04-26T14:57:38.684Z,36.50
2018-04-26T15:00:06.911Z,36.10
2018-04-26T15:02:34.355Z,36.10
2018-04-26T15:05:01.838Z,36.40
2018-04-26T15:07:30.043Z,37.20
2018-04-26T15:09:57.516Z,37.10
2018-04-26T15:12:24.988Z,37.40
2018-04-26T15:14:52.463Z,37.60
2018-04-26T15:17:19.933Z,36.60
2018-04-26T15:19:47.460Z,35.20
2018-04-26T15:22:14.948Z,35.40
2018-04-26T15:24:42.422Z,36.00
2018-04-26T15:27:09.867Z,36.50
2018-04-26T15:29:37.342Z,37.00
2018-04-26T15:32:04.823Z,37.30
2018-04-26T15:34:32.291Z,37.10
2018-04-26T15:36:59.791Z,36.90
2018-04-26T15:39:27.270Z,37.00
2018-04-26T15:41:54.765Z,37.30
2018-04-26T15:44:22.322Z,35.70
2018-04-26T15:46:49.717Z,33.30
2018-04-26T15:49:17.183Z,31.90
2018-04-26T15:51:44.703Z,31.10
2018-04-26T15:54:24.640Z,29.80
2018-04-26T15:57:04.026Z,29.70
2018-04-26T15:59:43.440Z,28.10
2018-04-26T16:05:36.927Z,26.50
2018-04-26T16:08:22.666Z,25.70
2018-04-26T16:11:07.563Z,25.70
2018-04-26T16:13:52.587Z,24.40
2018-04-26T16:16:37.591Z,23.20
2018-04-26T16:19:26.461Z,22.40
2018-04-26T16:22:11.565Z,21.90
2018-04-26T16:24:53.808Z,21.60
2018-04-26T16:27:38.779Z,21.80
2018-04-26T16:30:18.132Z,21.50
2018-04-26T16:33:03.167Z,20.70
2018-04-26T16:38:45.139Z,19.80
2018-04-26T16:41:12.765Z,19.50
2018-04-26T16:43:40.234Z,19.30
2018-04-26T16:46:08.452Z,19.20
2018-04-26T16:48:36.691Z,19.10
2018-04-26T16:51:04.139Z,19.10
2018-04-26T16:53:32.151Z,18.90
2018-04-26T16:56:00.379Z,19.30
2018-04-26T16:58:27.854Z,19.20
2018-04-26T17:00:55.300Z,19.10
2018-04-26T17:03:23.534Z,18.60
2018-04-26T17:05:51.001Z,18.50
2018-04-26T17:08:18.476Z,18.60
2018-04-26T17:10:45.932Z,18.90
2018-04-26T17:13:13.460Z,20.00
2018-04-26T17:15:41.732Z,19.60
2018-04-26T17:18:09.219Z,19.60
2018-04-26T17:20:36.694Z,19.20
2018-04-26T17:23:04.181Z,18.70
2018-04-26T17:25:31.653Z,18.30
2018-04-26T17:27:59.129Z,18.10
2018-04-26T17:30:26.572Z,18.60
2018-04-26T17:32:54.798Z,22.00
2018-04-26T17:35:22.288Z,21.90
2018-04-26T17:37:49.756Z,22.80
2018-04-26T17:40:17.303Z,22.40
2018-04-26T17:42:45.467Z,19.80
2018-04-26T17:45:13.731Z,19.00
2018-04-26T17:47:41.197Z,18.90
2018-04-26T17:50:08.631Z,18.40
2018-04-26T17:52:36.087Z,17.80
2018-04-26T17:55:03.826Z,17.40
2018-04-26T17:57:31.635Z,17.00
2018-04-26T18:00:00.841Z,16.50
2018-04-26T18:02:29.338Z,16.30
2018-04-26T18:04:57.146Z,16.30
2018-04-26T18:07:25.410Z,15.80
2018-04-26T18:09:53.972Z,15.70
2018-04-26T18:12:21.640Z,15.60
2018-04-26T18:14:49.298Z,15.60
2018-04-26T18:17:16.792Z,15.40
2018-04-26T18:19:44.346Z,15.20
2018-04-26T18:22:12.067Z,15.10
2018-04-26T18:24:39.517Z,15.00
2018-04-26T18:27:07.065Z,14.90
2018-04-26T18:29:34.595Z,14.80
2018-04-26T18:32:02.229Z,14.70
2018-04-26T18:34:29.641Z,14.70
2018-04-26T18:36:57.094Z,14.60
2018-04-26T18:39:24.814Z,14.50
2018-04-26T18:41:52.354Z,14.50
2018-04-26T18:44:19.840Z,14.50
2018-04-26T18:46:48.369Z,14.60
2018-04-26T18:49:15.880Z,14.60
2018-04-26T18:51:43.337Z,14.70
2018-04-26T18:54:10.836Z,14.80
2018-04-26T18:56:38.296Z,14.90
2018-04-26T18:59:05.828Z,15.00
2018-04-26T19:01:33.310Z,15.00
2018-04-26T19:04:00.781Z,15.10
2018-04-26T19:06:28.295Z,15.00
2018-04-26T19:08:55.773Z,15.00
2018-04-26T19:11:23.319Z,15.00
2018-04-26T19:13:51.570Z,14.90
2018-04-26T19:16:19.323Z,14.90
2018-04-26T19:18:47.078Z,15.00
2018-04-26T19:21:14.576Z,15.00
2018-04-26T19:23:42.989Z,15.00
2018-04-26T19:26:10.603Z,14.90
2018-04-26T19:28:38.254Z,14.90
2018-04-26T19:31:06.182Z,14.80
2018-04-26T19:33:33.840Z,14.70
2018-04-26T19:36:01.497Z,14.60
2018-04-26T19:38:29.161Z,14.50
2018-04-26T19:40:56.794Z,14.40
2018-04-26T19:43:25.925Z,14.30
2018-04-26T19:45:53.475Z,14.30
2018-04-26T19:48:21.024Z,14.20
2018-04-26T19:50:49.338Z,14.00
2018-04-26T19:53:16.864Z,14.00
2018-04-26T19:55:44.487Z,13.90
2018-04-26T19:58:12.216Z,13.90
2018-04-26T20:00:39.799Z,13.90
2018-04-26T20:03:08.035Z,13.90
2018-04-26T20:05:35.661Z,13.90
2018-04-26T20:08:03.122Z,13.90
2018-04-26T20:10:30.583Z,13.90
2018-04-26T20:12:58.864Z,13.80
2018-04-26T20:15:27.101Z,13.80
2018-04-26T20:17:54.587Z,13.70
2018-04-26T20:20:22.115Z,13.70
2018-04-26T20:22:49.599Z,13.70
2018-04-26T20:25:17.078Z,13.60
2018-04-26T20:27:45.312Z,13.50
2018-04-26T20:30:12.784Z,13.50
2018-04-26T20:32:40.334Z,13.50
2018-04-26T20:35:07.717Z,13.50
2018-04-26T20:37:35.207Z,13.40
2018-04-26T20:40:03.454Z,13.40
2018-04-26T20:42:30.895Z,13.40
2018-04-26T20:44:58.351Z,13.40
2018-04-26T20:47:25.831Z,13.30
2018-04-26T20:49:53.303Z,13.30
2018-04-26T20:52:20.812Z,13.20
2018-04-26T20:54:48.265Z,13.20
2018-04-26T20:57:15.737Z,13.10
2018-04-26T20:59:43.299Z,13.00
2018-04-26T21:02:10.775Z,12.90
2018-04-26T21:04:38.357Z,12.90
2018-04-26T21:07:06.573Z,12.80
2018-04-26T21:09:34.033Z,12.80
2018-04-26T21:12:01.526Z,12.70
2018-04-26T21:14:29.008Z,12.70
2018-04-26T21:16:57.224Z,12.60
2018-04-26T21:19:24.694Z,12.60
2018-04-26T21:21:52.194Z,12.60
2018-04-26T21:24:20.450Z,12.50
2018-04-26T21:26:47.900Z,12.50
2018-04-26T21:29:15.382Z,12.50
2018-04-26T21:31:42.872Z,12.40
2018-04-26T21:34:10.379Z,12.40
2018-04-26T21:36:37.832Z,12.40
2018-04-26T21:39:05.308Z,12.30
2018-04-26T21:41:32.756Z,12.20
2018-04-26T21:44:00.365Z,12.20
2018-04-26T21:46:28.591Z,12.20
2018-04-26T21:48:56.044Z,12.10
2018-04-26T21:51:29.148Z,12.10
2018-04-26T21:54:02.328Z,12.10
2018-04-26T21:56:35.496Z,12.00
2018-04-26T21:59:08.579Z,12.00
2018-04-26T22:01:41.704Z,11.90
2018-04-26T22:04:09.212Z,11.80
2018-04-26T22:06:37.424Z,11.70
2018-04-26T22:09:04.875Z,11.70
2018-04-26T22:11:32.347Z,11.70
2018-04-26T22:13:59.799Z,11.70
2018-04-26T22:16:28.050Z,11.60
2018-04-26T22:18:55.517Z,11.70
2018-04-26T22:21:23.264Z,11.60
2018-04-26T22:23:50.720Z,11.60
2018-04-26T22:26:18.196Z,11.60
2018-04-26T22:28:45.664Z,11.60
2018-04-26T22:31:13.133Z,11.50
2018-04-26T22:33:40.594Z,11.50
2018-04-26T22:36:08.070Z,11.50
2018-04-26T22:38:35.522Z,11.50
2018-04-26T22:41:03.008Z,11.50
2018-04-26T22:43:31.240Z,11.40
2018-04-26T22:45:58.709Z,11.40
2018-04-26T22:48:26.179Z,11.40
2018-04-26T22:50:53.751Z,11.40
2018-04-26T22:53:21.212Z,11.30
2018-04-26T22:55:48.742Z,11.30
2018-04-26T22:58:16.231Z,11.30
2018-04-26T23:00:43.689Z,11.30
2018-04-26T23:03:11.143Z,11.20
2018-04-26T23:05:38.618Z,11.20
2018-04-26T23:08:06.871Z,11.10
2018-04-26T23:10:34.317Z,11.10
2018-04-26T23:13:02.574Z,11.10
2018-04-26T23:15:30.033Z,11.10
2018-04-26T23:17:57.479Z,11.10
2018-04-26T23:20:25.018Z,11.00
2018-04-26T23:22:52.477Z,11.00
2018-04-26T23:25:19.963Z,11.00
2018-04-26T23:27:47.428Z,10.90
2018-04-26T23:30:14.911Z,10.90
2018-04-26T23:32:42.377Z,10.90
2018-04-26T23:35:09.930Z,10.80
2018-04-26T23:37:38.203Z,10.80
2018-04-26T23:40:05.662Z,10.80
2018-04-26T23:42:33.119Z,10.80
2018-04-26T23:45:00.587Z,10.80
2018-04-26T23:47:28.059Z,10.80
2018-04-26T23:49:56.544Z,10.80
2018-04-26T23:52:24.791Z,10.70
2018-04-26T23:54:52.238Z,10.70
2018-04-26T23:57:19.708Z,10.70
2018-04-26T23:59:47.185Z,10.70
